Terminal Aerodrome Forecast
Issued by NWS Charleston, WV

Current Version | Previous Version | Graphics & Text | Print | Product List | Glossary On
Versions: 1 2 3 4 5 6 7 8 9 10 11 12 13 14 15 16 17 18 19 20 21 22
000
FTUS41 KRLX 230500 RRA
TAFBKW
TAF
KBKW 230550Z 2306/2406 00000KT P6SM BKN250
     FM231200 14006G13KT P6SM OVC090
     FM231400 15011G18KT P6SM BKN080
     FM231800 15009G14KT 5SM -SN OVC025
     FM232000 10009KT 3SM -RAPL BR OVC020
     FM240000 13009KT 1 1/2SM -RAPL BR OVC012
     FM240500 12005KT 1SM -SN OVC008=

USA.gov is the U.S. government's official web portal to all federal, state and local government web resources and services.